sensor_id;sensor_type;location;lat;lon;timestamp;P1;durP1;ratioP1;P2;durP2;ratioP2
47155;SDS011;32908;52.344;16.858;2023-06-04T17:09:42;2.60;;;1.30;;
47155;SDS011;32908;52.344;16.858;2023-06-04T17:12:10;2.70;;;1.00;;
47155;SDS011;32908;52.344;16.858;2023-06-04T17:14:38;3.40;;;1.20;;
47155;SDS011;32908;52.344;16.858;2023-06-04T17:17:06;1.40;;;1.00;;
47155;SDS011;32908;52.344;16.858;2023-06-04T17:19:35;2.70;;;1.40;;
47155;SDS011;32908;52.344;16.858;2023-06-04T17:22:03;1.80;;;1.20;;
47155;SDS011;32908;52.344;16.858;2023-06-04T17:24:31;2.20;;;1.20;;
47155;SDS011;32908;52.344;16.858;2023-06-04T17:26:59;3.40;;;1.50;;
47155;SDS011;32908;52.344;16.858;2023-06-04T17:29:27;3.20;;;1.60;;
47155;SDS011;32908;52.344;16.858;2023-06-04T17:31:54;3.60;;;1.60;;
47155;SDS011;32908;52.344;16.858;2023-06-04T17:34:22;1.90;;;1.30;;
47155;SDS011;32908;52.344;16.858;2023-06-04T17:36:50;2.00;;;1.40;;
47155;SDS011;32908;52.344;16.858;2023-06-04T17:39:18;2.90;;;1.70;;
47155;SDS011;32908;52.344;16.858;2023-06-04T17:41:46;3.70;;;1.60;;
47155;SDS011;32908;52.344;16.858;2023-06-04T17:44:14;2.70;;;1.30;;
47155;SDS011;32908;52.344;16.858;2023-06-04T17:46:42;2.70;;;1.60;;
47155;SDS011;32908;52.344;16.858;2023-06-04T17:49:10;2.20;;;1.90;;
47155;SDS011;32908;52.344;16.858;2023-06-04T17:51:40;3.60;;;1.60;;
47155;SDS011;32908;52.344;16.858;2023-06-04T17:54:08;5.00;;;1.50;;
47155;SDS011;32908;52.344;16.858;2023-06-04T17:56:36;4.70;;;1.50;;
47155;SDS011;32908;52.344;16.858;2023-06-04T17:59:04;5.80;;;1.50;;
47155;SDS011;32908;52.344;16.858;2023-06-04T18:01:32;6.00;;;1.30;;
47155;SDS011;32908;52.344;16.858;2023-06-04T18:04:00;4.00;;;1.40;;
47155;SDS011;32908;52.344;16.858;2023-06-04T18:06:28;3.90;;;1.40;;
47155;SDS011;32908;52.344;16.858;2023-06-04T18:08:55;4.50;;;1.40;;
47155;SDS011;32908;52.344;16.858;2023-06-04T18:11:23;9.50;;;1.70;;
47155;SDS011;32908;52.344;16.858;2023-06-04T18:13:51;12.00;;;2.60;;
47155;SDS011;32908;52.344;16.858;2023-06-04T18:16:19;17.30;;;3.10;;
47155;SDS011;32908;52.344;16.858;2023-06-04T18:18:47;14.10;;;2.70;;
47155;SDS011;32908;52.344;16.858;2023-06-04T18:21:15;4.90;;;2.00;;
47155;SDS011;32908;52.344;16.858;2023-06-04T18:23:43;8.40;;;2.30;;
47155;SDS011;32908;52.344;16.858;2023-06-04T18:26:15;5.20;;;2.40;;
47155;SDS011;32908;52.344;16.858;2023-06-04T18:28:43;13.30;;;3.10;;
47155;SDS011;32908;52.344;16.858;2023-06-04T18:31:11;20.50;;;3.10;;
47155;SDS011;32908;52.344;16.858;2023-06-04T18:33:49;11.60;;;2.50;;
47155;SDS011;32908;52.344;16.858;2023-06-04T18:36:17;11.90;;;2.80;;
47155;SDS011;32908;52.344;16.858;2023-06-04T18:38:45;13.30;;;2.80;;
47155;SDS011;32908;52.344;16.858;2023-06-04T18:41:13;11.70;;;2.50;;
47155;SDS011;32908;52.344;16.858;2023-06-04T18:43:41;8.40;;;2.50;;
47155;SDS011;32908;52.344;16.858;2023-06-04T18:46:09;10.20;;;2.90;;
47155;SDS011;32908;52.344;16.858;2023-06-04T18:48:37;9.90;;;2.50;;
47155;SDS011;32908;52.344;16.858;2023-06-04T18:51:05;10.10;;;2.50;;
47155;SDS011;32908;52.344;16.858;2023-06-04T18:53:33;9.20;;;2.80;;
47155;SDS011;32908;52.344;16.858;2023-06-04T18:56:02;4.00;;;2.20;;
47155;SDS011;32908;52.344;16.858;2023-06-04T18:58:30;6.10;;;2.80;;
47155;SDS011;32908;52.344;16.858;2023-06-04T19:00:58;13.50;;;3.40;;
47155;SDS011;32908;52.344;16.858;2023-06-04T19:03:26;6.90;;;3.00;;
47155;SDS011;32908;52.344;16.858;2023-06-04T19:05:54;13.50;;;3.00;;
47155;SDS011;32908;52.344;16.858;2023-06-04T19:08:22;8.30;;;3.20;;
